Portada
METAR-TAF:

METAR-TAF

Aeroports :

Medina, Aràbia Saudita

latitud: 24-33N, longitud: 039-42E, altitud: 654 m

Observació

L'informe es va fer fa 1 hora i 13 minuts, a les 11:00 UTC
Vent 12 kt del Oest/Sud-Oest
Temperatura 43°C
Humitat 6%
Pressió 1008 hPa
Visibilitat 10 km o més
sense núvols per sota de 1500 mi sense presència de cumulonimbus.

METAR: OEMA 041100Z 24012KT CAVOK 43/M03 Q1008 NOSIG

Hora: 15:13 (12:13 UTC)

Pronòstic

L'informe es va fer fa 1 hora i 13 minuts, a les 11:00 UTC
Pronòstic vàlid del 04 a les 12 UTC al 05 a les 18 UTC
Vent 12 kt del Oest/Nord-Oest
Visibilitat 10 km o més
sense núvols per sota de 1500 mi sense presència de cumulonimbus.
Evolucionant progressivament
l' 04 a les 18 UTC al 04 a les 20 UTC
Vent 3 kt amb direcció variable
Evolucionant progressivament
l' 05 a les 06 UTC al 05 a les 08 UTC
Vent 10 kt del Nord-Oest

TAF: OEMA 041100Z 0412/0518 30012KT CAVOK BECMG 0418/0420 VRB03KT BECMG 0506/0508 31010KT

Observacions i pronòstics meteorològics de més de 4000 aeroports (METAR i TAF).

Les estacions disponibles són els punts grocs i vermells al mapa.

Posi el ratolí al punt desitjat per veure el nom de l'estació.

Feu clic per veure les observacions i els pronòstics meteorològics.

Per canviar el mapa: feu clic els botons verds amb una creu de color negre per apropar; al botó verd amb un guió per allunyar la imatge; o en les fletxes verdes per a mapes adjacents.


METAR-TAF: